Time;durP1;ratioP1;P1;durP2;ratioP2;P2;SDS_P1;SDS_P2;PMS_P1;PMS_P2;Temp;Humidity;BMP_temperature;BMP_pressure;BME280_temperature;BME280_humidity;BME280_pressure;Samples;Min_cycle;Max_cycle;Signal;HPM_P1;HPM_P2
2022/06/30 00:01:22;;;;;;;4.43;2.15;;;21.40;99.90;;;;;;4957213;28;20042;-91
2022/06/30 00:03:48;;;;;;;4.20;2.47;;;21.30;99.90;;;;;;4957282;28;20050;-91
2022/06/30 00:06:13;;;;;;;3.75;2.58;;;21.30;99.90;;;;;;4973551;28;20049;-96
2022/06/30 00:08:39;;;;;;;2.75;2.13;;;21.30;99.90;;;;;;4988741;28;20046;-93
2022/06/30 00:11:08;;;;;;;2.80;2.03;;;21.20;99.90;;;;;;4973051;28;20041;-92
2022/06/30 00:13:39;;;;;;;3.35;2.22;;;21.10;99.90;;;;;;4973394;28;20517;-91
2022/06/30 00:16:05;;;;;;;2.35;2.15;;;21.10;99.90;;;;;;4989022;28;20046;-92
2022/06/30 00:18:32;;;;;;;3.03;2.00;;;21.10;99.90;;;;;;4973427;28;20104;-91
2022/06/30 00:20:58;;;;;;;2.78;2.53;;;21.00;99.90;;;;;;4990055;28;20050;-91
2022/06/30 00:23:24;;;;;;;6.97;1.90;;;21.00;99.90;;;;;;4992825;28;20042;-90
2022/06/30 00:25:50;;;;;;;3.10;2.40;;;20.90;99.90;;;;;;4975940;28;20129;-91
2022/06/30 00:28:18;;;;;;;3.95;2.70;;;20.90;99.90;;;;;;4976887;28;20046;-91
2022/06/30 00:30:45;;;;;;;4.07;2.38;;;20.90;99.90;;;;;;4976336;28;20034;-91
2022/06/30 00:33:11;;;;;;;3.35;2.40;;;20.80;99.90;;;;;;4975598;28;20046;-91
2022/06/30 00:35:37;;;;;;;2.40;2.20;;;20.70;99.90;;;;;;4976475;28;20072;-91
2022/06/30 00:38:04;;;;;;;4.10;2.90;;;20.70;99.90;;;;;;4959254;28;20045;-92
2022/06/30 00:40:38;;;;;;;3.03;2.53;;;20.70;99.90;;;;;;5008883;28;20053;-92
2022/06/30 00:43:04;;;;;;;4.18;2.78;;;20.60;99.90;;;;;;5008438;28;20049;-91
2022/06/30 00:45:31;;;;;;;4.65;2.35;;;20.50;99.90;;;;;;4976940;28;20108;-91
2022/06/30 00:47:58;;;;;;;3.50;2.60;;;20.50;99.90;;;;;;4960974;28;20148;-91
2022/06/30 00:50:25;;;;;;;7.80;2.58;;;20.50;99.90;;;;;;4978081;28;20194;-91
2022/06/30 00:52:52;;;;;;;2.35;2.15;;;20.40;99.90;;;;;;4980487;28;20048;-91
2022/06/30 00:55:19;;;;;;;3.70;3.10;;;20.40;99.90;;;;;;5008061;28;20101;-91
2022/06/30 00:57:45;;;;;;;3.40;2.45;;;20.40;99.90;;;;;;4999457;28;20110;-91
2022/06/30 01:00:15;;;;;;;4.90;2.40;;;20.30;99.90;;;;;;4976355;28;20133;-92
2022/06/30 01:02:40;;;;;;;3.28;2.53;;;20.30;99.90;;;;;;4959710;28;20046;-92
2022/06/30 01:05:07;;;;;;;3.10;2.33;;;20.30;99.90;;;;;;4975693;28;20053;-91
2022/06/30 01:07:34;;;;;;;4.50;2.03;;;20.30;99.90;;;;;;4992267;28;20046;-91
2022/06/30 01:12:47;;;;;;;2.15;1.95;;;20.20;99.90;;;;;;5007210;28;20057;-91
2022/06/30 01:15:20;;;;;;;4.75;2.10;;;20.20;99.90;;;;;;4975538;28;20136;-93
2022/06/30 01:17:48;;;;;;;4.95;2.20;;;20.10;99.90;;;;;;4995445;28;20049;-92
2022/06/30 01:20:15;;;;;;;5.72;2.30;;;20.10;99.90;;;;;;4976000;28;20493;-91
2022/06/30 01:22:42;;;;;;;3.72;2.17;;;20.10;99.90;;;;;;4976870;28;20046;-93
2022/06/30 01:25:09;;;;;;;3.30;2.08;;;20.10;99.90;;;;;;4992226;28;20523;-92
2022/06/30 01:27:36;;;;;;;4.38;2.20;;;20.00;99.90;;;;;;4992683;28;20505;-91
2022/06/30 01:30:02;;;;;;;3.15;2.28;;;20.00;99.90;;;;;;4991408;28;20046;-93
2022/06/30 01:32:30;;;;;;;3.17;2.38;;;19.90;99.90;;;;;;4992053;28;20042;-92
2022/06/30 01:34:56;;;;;;;4.47;2.72;;;19.90;99.90;;;;;;4991588;28;20049;-92
2022/06/30 01:37:23;;;;;;;4.05;2.38;;;19.90;99.90;;;;;;4976409;28;20042;-92
2022/06/30 01:39:49;;;;;;;5.03;2.70;;;19.90;99.90;;;;;;4960217;28;20046;-92
2022/06/30 01:42:15;;;;;;;2.55;1.95;;;19.80;99.90;;;;;;4975517;28;20042;-92
2022/06/30 01:44:40;;;;;;;3.83;2.00;;;19.80;99.90;;;;;;4975569;28;20056;-93
2022/06/30 01:47:07;;;;;;;7.35;2.33;;;19.70;99.90;;;;;;4975104;28;20042;-93
2022/06/30 01:49:33;;;;;;;5.55;2.35;;;19.70;99.90;;;;;;4991988;28;20140;-92
2022/06/30 01:51:59;;;;;;;2.40;2.08;;;19.60;99.90;;;;;;4959126;28;20081;-92
2022/06/30 01:54:24;;;;;;;3.13;2.20;;;19.70;99.90;;;;;;4976268;28;20136;-93
2022/06/30 01:56:51;;;;;;;2.90;2.25;;;19.60;99.90;;;;;;4976143;28;20654;-92
2022/06/30 01:59:17;;;;;;;8.35;2.00;;;19.50;99.90;;;;;;4976911;28;20049;-92
2022/06/30 02:01:43;;;;;;;3.92;2.50;;;19.50;99.90;;;;;;4998004;28;20038;-92
2022/06/30 02:06:53;;;;;;;3.85;2.10;;;19.40;99.90;;;;;;4986876;28;20049;-92
2022/06/30 02:09:18;;;;;;;4.90;2.47;;;19.30;99.90;;;;;;4964310;28;20110;-92
2022/06/30 02:11:44;;;;;;;2.10;1.63;;;19.30;99.90;;;;;;4982556;28;20050;-91
2022/06/30 02:14:10;;;;;;;3.58;2.00;;;19.40;99.90;;;;;;5002542;28;20054;-93
2022/06/30 02:16:36;;;;;;;2.20;1.70;;;19.30;99.90;;;;;;4969108;28;20038;-91
2022/06/30 02:19:02;;;;;;;4.35;1.80;;;19.90;99.90;;;;;;4968721;28;20064;-92
2022/06/30 02:21:28;;;;;;;3.13;2.22;;;19.20;99.90;;;;;;4969008;28;20049;-93
2022/06/30 02:23:53;;;;;;;2.90;2.28;;;19.20;99.90;;;;;;4969650;28;20069;-93
2022/06/30 02:26:19;;;;;;;3.45;1.95;;;19.20;99.90;;;;;;4979093;28;20473;-92
2022/06/30 02:28:45;;;;;;;8.63;1.95;;;19.20;99.90;;;;;;4991696;28;20135;-92
2022/06/30 02:31:12;;;;;;;3.30;2.00;;;19.20;99.90;;;;;;4991674;28;20050;-93
2022/06/30 02:33:42;;;;;;;4.57;1.80;;;19.40;99.90;;;;;;4991616;28;20141;-93
2022/06/30 02:36:07;;;;;;;4.65;1.92;;;19.20;99.90;;;;;;4991315;28;20528;-94
2022/06/30 02:38:34;;;;;;;3.28;1.83;;;19.10;99.90;;;;;;4957293;28;20041;-91
2022/06/30 02:41:00;;;;;;;5.20;2.25;;;19.10;99.90;;;;;;4990388;28;20049;-94
2022/06/30 02:43:25;;;;;;;2.90;1.77;;;19.30;99.90;;;;;;4989941;28;20041;-93
2022/06/30 02:45:51;;;;;;;7.63;1.92;;;19.00;99.90;;;;;;4975006;28;20038;-94
2022/06/30 02:48:18;;;;;;;3.22;1.67;;;19.00;99.90;;;;;;4960006;28;20053;-92
2022/06/30 02:50:44;;;;;;;4.13;1.98;;;19.00;99.90;;;;;;4987779;28;20034;-92
2022/06/30 02:53:13;;;;;;;3.58;2.20;;;18.90;99.90;;;;;;5007235;28;20056;-92
2022/06/30 02:55:39;;;;;;;3.83;2.30;;;18.90;99.90;;;;;;4979510;28;20077;-92
2022/06/30 02:58:05;;;;;;;2.90;2.42;;;18.90;99.90;;;;;;4961692;28;20108;-92
2022/06/30 03:00:30;;;;;;;8.88;2.58;;;19.00;99.90;;;;;;4977480;28;20045;-94
2022/06/30 03:02:57;;;;;;;2.95;2.05;;;18.80;99.90;;;;;;4979885;28;20038;-92
2022/06/30 03:05:23;;;;;;;3.10;2.25;;;18.70;99.90;;;;;;4960308;28;20042;-93
2022/06/30 03:07:49;;;;;;;7.30;2.75;;;18.80;99.90;;;;;;4975218;28;20320;-92
2022/06/30 03:10:15;;;;;;;4.00;2.55;;;18.80;99.90;;;;;;4977999;28;20042;-93
2022/06/30 03:12:41;;;;;;;2.97;2.28;;;18.70;99.90;;;;;;4963358;28;20034;-93
2022/06/30 03:15:07;;;;;;;2.80;2.47;;;18.70;99.90;;;;;;4962019;28;20057;-93
2022/06/30 03:17:33;;;;;;;3.75;2.63;;;18.70;99.90;;;;;;4978091;28;20563;-93
2022/06/30 03:19:58;;;;;;;4.68;2.60;;;18.70;99.90;;;;;;4958967;28;20050;-91
2022/06/30 03:22:24;;;;;;;4.65;2.35;;;18.60;99.90;;;;;;4958580;28;20049;-93
2022/06/30 03:24:50;;;;;;;4.68;2.90;;;18.60;99.90;;;;;;4959128;28;20104;-91
2022/06/30 03:27:16;;;;;;;4.55;2.88;;;18.60;99.90;;;;;;4975764;28;20037;-93
2022/06/30 03:29:41;;;;;;;8.02;3.15;;;18.50;99.90;;;;;;4957454;28;20064;-94
2022/06/30 03:32:07;;;;;;;3.85;2.83;;;18.50;99.90;;;;;;4973722;28;20073;-92
2022/06/30 03:34:33;;;;;;;3.13;2.80;;;18.50;99.90;;;;;;4955923;28;20137;-92
2022/06/30 03:36:59;;;;;;;6.68;3.67;;;18.40;99.90;;;;;;4973365;28;20104;-92
2022/06/30 03:39:24;;;;;;;6.13;2.92;;;18.40;99.90;;;;;;4972500;28;20038;-91
2022/06/30 03:41:50;;;;;;;5.38;3.40;;;18.40;99.90;;;;;;4973141;28;20140;-91
2022/06/30 03:44:16;;;;;;;3.13;2.67;;;18.30;99.90;;;;;;4956918;28;20041;-91
2022/06/30 03:46:41;;;;;;;4.75;3.35;;;19.30;99.90;;;;;;4973314;28;20042;-91
2022/06/30 03:49:08;;;;;;;5.28;3.40;;;18.30;99.90;;;;;;4973667;28;20580;-92
2022/06/30 03:51:34;;;;;;;6.63;3.45;;;18.20;99.90;;;;;;4972483;28;20085;-92
2022/06/30 03:54:00;;;;;;;8.60;3.00;;;18.20;99.90;;;;;;4973072;28;20144;-93
2022/06/30 03:56:25;;;;;;;5.10;3.60;;;18.20;99.90;;;;;;4958306;28;20042;-93
2022/06/30 03:58:52;;;;;;;4.05;3.28;;;18.20;99.90;;;;;;4993118;28;20445;-92
2022/06/30 04:01:18;;;;;;;4.80;3.15;;;18.20;99.90;;;;;;4992370;28;20046;-92
2022/06/30 04:03:43;;;;;;;4.07;3.17;;;18.50;99.90;;;;;;4992521;28;20045;-91
2022/06/30 04:06:09;;;;;;;8.48;3.92;;;18.70;99.90;;;;;;4960948;28;20046;-92
2022/06/30 04:08:35;;;;;;;4.40;3.13;;;18.20;99.90;;;;;;4959718;28;20040;-93
2022/06/30 04:11:00;;;;;;;4.78;3.22;;;18.20;99.90;;;;;;4961360;28;20045;-92
2022/06/30 04:13:26;;;;;;;3.35;2.92;;;18.20;99.90;;;;;;4959205;28;20493;-91
2022/06/30 04:15:54;;;;;;;3.50;2.80;;;18.20;99.90;;;;;;4992795;28;20052;-93
2022/06/30 04:18:19;;;;;;;6.10;2.97;;;18.20;99.90;;;;;;4992159;28;20042;-92
2022/06/30 04:20:46;;;;;;;4.43;2.88;;;18.20;99.90;;;;;;4976037;28;20057;-94
2022/06/30 04:23:12;;;;;;;4.82;3.45;;;18.20;99.90;;;;;;4961772;28;20144;-91
2022/06/30 04:25:38;;;;;;;3.75;3.05;;;18.20;99.90;;;;;;4960560;28;20100;-92
2022/06/30 04:28:05;;;;;;;3.97;3.17;;;18.20;99.90;;;;;;4977891;28;20062;-93
2022/06/30 04:33:15;;;;;;;5.50;2.88;;;18.20;99.90;;;;;;5009936;28;20053;-90
2022/06/30 04:35:41;;;;;;;4.22;3.15;;;18.30;99.90;;;;;;5010173;28;20046;-94
2022/06/30 04:38:07;;;;;;;4.10;2.95;;;18.30;99.90;;;;;;4978753;28;20505;-88
2022/06/30 04:43:17;;;;;;;8.43;3.15;;;18.40;99.90;;;;;;4996715;28;20537;-91
2022/06/30 04:45:43;;;;;;;4.78;2.78;;;18.40;99.90;;;;;;4983619;28;20126;-89
2022/06/30 04:48:09;;;;;;;5.93;2.90;;;18.50;99.90;;;;;;5005512;28;20101;-89
2022/06/30 04:50:35;;;;;;;4.93;2.92;;;18.50;99.90;;;;;;4978582;28;20045;-89
2022/06/30 04:53:01;;;;;;;3.40;2.92;;;18.50;99.90;;;;;;4976387;28;20125;-89
2022/06/30 04:55:27;;;;;;;4.90;2.80;;;18.60;99.90;;;;;;4975037;28;20038;-89
2022/06/30 04:57:52;;;;;;;7.38;3.10;;;18.70;99.90;;;;;;4975212;28;20390;-88
2022/06/30 05:00:18;;;;;;;4.05;3.05;;;18.70;99.90;;;;;;4990443;28;20042;-90
2022/06/30 05:02:44;;;;;;;6.00;2.42;;;18.80;99.90;;;;;;4977088;28;20041;-90
2022/06/30 05:05:10;;;;;;;4.10;2.78;;;18.80;99.90;;;;;;4976011;28;20091;-92
2022/06/30 05:07:35;;;;;;;7.70;2.85;;;18.90;99.90;;;;;;4976747;28;20386;-90
2022/06/30 05:10:02;;;;;;;4.40;3.17;;;18.90;99.90;;;;;;4976642;28;20057;-92
2022/06/30 05:12:28;;;;;;;4.28;2.88;;;19.00;99.90;;;;;;5012533;28;20065;-94
2022/06/30 05:14:54;;;;;;;3.38;2.63;;;19.00;99.90;;;;;;4992257;28;20049;-88
2022/06/30 05:17:20;;;;;;;4.47;2.75;;;19.10;99.90;;;;;;4980289;28;20050;-91
2022/06/30 05:19:45;;;;;;;5.38;2.63;;;19.20;99.90;;;;;;4998703;28;20050;-91
2022/06/30 05:22:11;;;;;;;3.25;2.10;;;19.20;99.90;;;;;;4994962;28;20034;-87
2022/06/30 05:27:57;;;;;;;5.97;4.00;;;19.30;99.90;;;;;;4951767;28;20517;-91
2022/06/30 05:30:25;;;;;;;7.72;4.78;;;19.40;99.90;;;;;;4955223;28;20478;-90
2022/06/30 05:32:51;;;;;;;9.32;6.07;;;19.40;99.90;;;;;;4961002;28;20053;-89
2022/06/30 05:35:17;;;;;;;10.68;7.38;;;19.50;99.90;;;;;;4975486;28;20129;-86
2022/06/30 05:37:42;;;;;;;14.63;8.38;;;19.60;99.90;;;;;;5006326;28;20038;-89
2022/06/30 05:40:09;;;;;;;14.25;10.70;;;19.60;99.90;;;;;;5006083;28;20055;-88
2022/06/30 05:42:35;;;;;;;18.10;13.35;;;19.70;99.90;;;;;;5006256;28;20042;-89
2022/06/30 05:45:01;;;;;;;29.42;18.58;;;19.70;99.90;;;;;;4990448;28;20072;-88
2022/06/30 05:47:27;;;;;;;39.25;22.75;;;19.80;99.90;;;;;;5005075;28;20476;-88
2022/06/30 05:49:52;;;;;;;35.35;23.30;;;19.80;99.90;;;;;;4973886;28;20124;-88
2022/06/30 05:52:18;;;;;;;35.25;24.75;;;20.30;99.90;;;;;;4988985;28;20410;-89
2022/06/30 05:54:44;;;;;;;34.88;23.60;;;20.00;99.90;;;;;;4974296;28;20136;-90
2022/06/30 05:57:10;;;;;;;31.08;20.92;;;20.00;99.90;;;;;;4972908;28;20046;-87
2022/06/30 05:59:35;;;;;;;30.73;19.88;;;20.10;99.90;;;;;;4989584;28;20053;-88
2022/06/30 06:02:01;;;;;;;26.15;16.73;;;20.10;99.90;;;;;;4973025;28;20042;-92
2022/06/30 06:04:27;;;;;;;20.75;14.32;;;20.20;99.90;;;;;;4973422;28;20049;-92
2022/06/30 06:06:53;;;;;;;18.00;13.23;;;20.30;99.90;;;;;;4990781;28;20497;-91
2022/06/30 06:09:19;;;;;;;10.43;9.27;;;20.40;99.90;;;;;;4973265;28;20052;-90
2022/06/30 06:11:45;;;;;;;11.57;7.90;;;20.50;99.90;;;;;;4977447;28;20044;-94
2022/06/30 06:14:11;;;;;;;8.13;5.90;;;20.60;99.90;;;;;;4990636;28;20050;-93
2022/06/30 06:16:37;;;;;;;8.73;6.05;;;20.70;99.90;;;;;;4974242;28;20068;-93
2022/06/30 06:19:03;;;;;;;7.93;5.20;;;20.80;99.90;;;;;;4975898;28;20060;-92
2022/06/30 06:21:28;;;;;;;7.60;5.07;;;20.80;99.90;;;;;;4973801;28;20096;-92
2022/06/30 06:23:54;;;;;;;6.32;4.32;;;20.90;99.90;;;;;;4958229;28;20141;-92
2022/06/30 06:26:20;;;;;;;14.13;4.90;;;21.00;99.90;;;;;;4956560;28;20049;-92
2022/06/30 06:31:32;;;;;;;7.22;3.95;;;21.20;99.90;;;;;;5006721;28;20096;-93
2022/06/30 06:33:58;;;;;;;9.38;4.18;;;21.30;99.90;;;;;;4991628;28;20045;-92
2022/06/30 06:36:24;;;;;;;5.13;3.72;;;21.40;99.90;;;;;;4976204;28;20460;-92
2022/06/30 06:38:51;;;;;;;5.25;4.13;;;21.40;99.90;;;;;;4957318;28;20046;-92
2022/06/30 06:41:20;;;;;;;6.70;3.95;;;21.40;99.90;;;;;;4977174;28;20462;-92
2022/06/30 06:43:48;;;;;;;7.43;4.35;;;22.50;99.90;;;;;;4982974;28;20105;-92
2022/06/30 06:46:13;;;;;;;6.68;4.20;;;21.60;99.90;;;;;;4966305;28;20482;-94
2022/06/30 06:48:40;;;;;;;5.18;3.78;;;21.70;99.90;;;;;;4974270;28;20092;-93
2022/06/30 07:09:37;;;;;;;7.15;4.63;;;22.40;99.90;;;;;;4982045;28;20090;-91
2022/06/30 07:16:07;;;;;;;7.25;3.40;;;22.60;99.90;;;;;;4991322;28;20085;-95
2022/06/30 07:29:58;;;;;;;4.03;3.13;;;22.80;99.90;;;;;;4998894;28;20043;-93
2022/06/30 07:58:22;;;;;;;4.90;3.65;;;23.70;99.90;;;;;;5059231;28;20043;-94
2022/06/30 08:00:48;;;;;;;4.13;2.85;;;23.00;99.90;;;;;;5040784;28;20100;-95
2022/06/30 08:03:14;;;;;;;4.88;3.80;;;23.80;99.90;;;;;;5052254;28;20056;-96
2022/06/30 08:05:40;;;;;;;6.43;3.95;;;24.00;99.90;;;;;;5054900;28;20084;-96
2022/06/30 08:08:06;;;;;;;5.65;3.47;;;24.00;99.90;;;;;;5057273;28;20052;-96
2022/06/30 08:10:35;;;;;;;4.75;3.85;;;24.00;99.90;;;;;;5042155;28;20037;-95
2022/06/30 08:13:00;;;;;;;6.40;4.00;;;24.20;99.90;;;;;;5039835;28;20041;-96
2022/06/30 08:15:29;;;;;;;5.55;3.65;;;24.40;99.90;;;;;;5019425;28;20049;-95
2022/06/30 08:17:55;;;;;;;5.70;4.03;;;24.30;99.90;;;;;;5027645;28;20272;-96
2022/06/30 08:20:20;;;;;;;5.82;4.00;;;24.50;99.90;;;;;;5013544;28;20041;-96
2022/06/30 08:22:54;;;;;;;7.40;3.90;;;24.60;99.90;;;;;;5038047;28;20067;-96
2022/06/30 08:25:25;;;;;;;4.95;3.40;;;24.60;99.90;;;;;;5038294;28;20048;-96
2022/06/30 08:27:51;;;;;;;4.07;3.60;;;24.70;99.90;;;;;;5028698;28;20048;-96
2022/06/30 08:30:30;;;;;;;6.38;3.83;;;24.80;99.90;;;;;;5005998;28;20496;-97
2022/06/30 08:32:56;;;;;;;6.45;3.97;;;24.90;99.90;;;;;;5028402;28;20045;-96
2022/06/30 08:35:22;;;;;;;3.92;3.30;;;25.00;99.90;;;;;;5023019;28;20055;-96
2022/06/30 08:37:48;;;;;;;6.70;3.90;;;25.10;99.90;;;;;;5013589;28;20040;-96
2022/06/30 08:46:02;;;;;;;4.82;3.70;;;25.40;99.90;;;;;;5045070;28;20047;-96
2022/06/30 08:48:29;;;;;;;5.10;4.05;;;26.00;99.90;;;;;;5045853;28;20037;-96
2022/06/30 08:51:06;;;;;;;6.95;4.07;;;25.50;99.90;;;;;;5027643;28;20487;-94
2022/06/30 08:53:39;;;;;;;13.98;4.85;;;25.60;99.90;;;;;;5024701;28;20057;-95
2022/06/30 08:56:05;;;;;;;6.05;4.00;;;25.70;99.90;;;;;;5038620;28;20132;-93
2022/06/30 08:58:32;;;;;;;5.65;3.67;;;25.80;99.90;;;;;;5024098;28;20041;-94
2022/06/30 09:00:58;;;;;;;5.93;4.28;;;25.90;99.90;;;;;;5007805;28;20228;-93
2022/06/30 09:03:23;;;;;;;5.88;4.45;;;26.00;99.90;;;;;;5027445;28;20048;-94
2022/06/30 09:05:49;;;;;;;5.40;4.40;;;26.20;99.90;;;;;;5024277;28;20048;-95
2022/06/30 09:08:17;;;;;;;6.25;4.07;;;26.20;99.90;;;;;;5025332;28;20104;-94
2022/06/30 09:10:51;;;;;;;6.13;4.30;;;26.30;99.90;;;;;;5028672;28;20049;-95
2022/06/30 09:13:19;;;;;;;10.95;5.45;;;26.40;99.90;;;;;;5048536;28;20044;-94
2022/06/30 09:15:45;;;;;;;4.88;4.25;;;26.40;99.90;;;;;;5045941;28;20036;-92
2022/06/30 09:18:25;;;;;;;5.82;4.75;;;26.60;99.90;;;;;;5030640;28;20040;-94
2022/06/30 09:20:52;;;;;;;9.88;5.13;;;26.60;99.90;;;;;;5047656;28;20051;-95
2022/06/30 09:23:23;;;;;;;8.02;4.60;;;26.60;99.90;;;;;;5011906;28;20058;-95
2022/06/30 09:25:56;;;;;;;20.77;6.20;;;26.60;99.90;;;;;;5040396;28;20111;-94
2022/06/30 09:28:38;;;;;;;9.63;4.35;;;26.70;99.90;;;;;;5062712;28;20028;-94
2022/06/30 09:31:04;;;;;;;5.15;4.65;;;26.80;99.90;;;;;;5058605;28;20080;-93
2022/06/30 09:33:35;;;;;;;5.18;4.57;;;26.80;99.90;;;;;;5016552;28;20067;-94
2022/06/30 09:36:24;;;;;;;8.15;4.78;;;26.80;99.90;;;;;;5025114;28;20037;-94
2022/06/30 09:39:01;;;;;;;4.70;4.20;;;26.90;99.90;;;;;;5038967;28;20056;-93
2022/06/30 09:41:32;;;;;;;5.45;3.80;;;26.90;99.90;;;;;;5038577;28;20148;-93
2022/06/30 09:43:59;;;;;;;5.47;4.18;;;27.00;99.90;;;;;;5028096;28;20047;-96
2022/06/30 09:46:25;;;;;;;7.50;4.70;;;27.10;99.90;;;;;;5027344;28;20051;-94
2022/06/30 09:48:51;;;;;;;7.65;4.80;;;27.20;99.90;;;;;;5038033;28;20047;-93
2022/06/30 09:51:17;;;;;;;5.50;4.43;;;27.20;99.90;;;;;;5020939;28;20044;-94
2022/06/30 09:54:03;;;;;;;5.55;4.13;;;27.30;99.90;;;;;;5025346;28;20044;-96
2022/06/30 09:56:30;;;;;;;7.57;4.10;;;27.50;99.90;;;;;;5043195;28;20126;-94
2022/06/30 09:58:56;;;;;;;6.68;4.10;;;27.60;99.90;;;;;;5008491;28;20040;-95
2022/06/30 10:01:22;;;;;;;7.30;5.22;;;27.70;99.90;;;;;;5007229;28;20117;-94
2022/06/30 10:03:59;;;;;;;7.97;5.10;;;27.70;99.90;;;;;;5022400;28;20051;-94
2022/06/30 10:06:25;;;;;;;5.45;4.95;;;27.90;99.90;;;;;;5039365;28;20123;-96
2022/06/30 10:08:53;;;;;;;6.20;4.82;;;27.90;99.90;;;;;;5022283;28;20087;-96
2022/06/30 10:11:20;;;;;;;7.07;4.78;;;27.90;99.40;;;;;;5058034;28;20109;-95
2022/06/30 10:13:48;;;;;;;8.65;4.78;;;28.00;99.60;;;;;;5036688;28;20057;-96
2022/06/30 10:16:16;;;;;;;7.18;4.72;;;28.10;99.70;;;;;;5040511;28;20135;-94
2022/06/30 10:18:42;;;;;;;7.45;4.38;;;28.20;99.20;;;;;;5054164;28;20040;-94
2022/06/30 10:21:08;;;;;;;7.32;4.05;;;28.40;99.00;;;;;;5023050;28;20043;-95
2022/06/30 10:23:35;;;;;;;4.32;3.90;;;28.50;98.70;;;;;;5019875;28;20051;-95
2022/06/30 10:26:02;;;;;;;6.30;5.32;;;28.60;98.70;;;;;;5037691;28;20601;-95
2022/06/30 10:28:29;;;;;;;7.03;5.15;;;28.70;98.30;;;;;;5004918;28;20052;-94
2022/06/30 10:31:21;;;;;;;5.05;4.65;;;28.80;98.40;;;;;;5003698;28;20036;-94
2022/06/30 10:34:07;;;;;;;6.80;4.97;;;29.00;97.80;;;;;;5038916;28;20040;-96
2022/06/30 10:36:46;;;;;;;5.25;4.60;;;29.10;96.60;;;;;;5041533;28;20286;-94
2022/06/30 10:39:39;;;;;;;5.97;4.47;;;29.30;96.40;;;;;;5052518;28;20048;-94
2022/06/30 10:42:05;;;;;;;5.43;4.93;;;29.40;95.80;;;;;;5052010;28;20074;-95
2022/06/30 10:44:32;;;;;;;4.88;4.38;;;29.60;95.40;;;;;;5005019;28;20040;-95
2022/06/30 10:46:58;;;;;;;4.95;4.32;;;29.50;95.30;;;;;;5038158;28;20079;-93
2022/06/30 10:49:26;;;;;;;7.40;6.45;;;29.60;95.40;;;;;;5035957;28;20068;-94
2022/06/30 10:52:21;;;;;;;5.57;4.45;;;29.80;94.10;;;;;;5037308;28;20045;-93
2022/06/30 10:54:47;;;;;;;6.18;4.50;;;29.50;93.40;;;;;;5041884;28;20466;-94
2022/06/30 10:57:13;;;;;;;7.03;4.85;;;30.10;93.40;;;;;;5020934;28;20044;-92
2022/06/30 10:59:43;;;;;;;8.43;5.13;;;30.20;92.80;;;;;;5006262;28;20139;-88
2022/06/30 11:02:11;;;;;;;5.20;4.70;;;30.40;92.90;;;;;;5037425;28;20045;-91
2022/06/30 11:04:41;;;;;;;7.13;4.93;;;30.40;91.40;;;;;;5038019;28;20102;-91
2022/06/30 11:07:20;;;;;;;4.35;3.95;;;30.20;90.40;;;;;;5019764;28;20037;-91
2022/06/30 11:09:48;;;;;;;4.93;4.25;;;30.00;89.80;;;;;;5037537;28;20067;-92
2022/06/30 11:12:19;;;;;;;5.22;4.55;;;29.80;90.00;;;;;;5036612;28;20056;-92
2022/06/30 11:14:53;;;;;;;5.30;4.77;;;29.60;90.30;;;;;;5035993;28;20044;-93
2022/06/30 11:17:21;;;;;;;5.60;4.32;;;29.50;90.70;;;;;;5037627;28;20514;-92
2022/06/30 11:20:03;;;;;;;4.97;4.47;;;29.40;91.00;;;;;;5039939;28;20373;-93
2022/06/30 11:22:29;;;;;;;5.95;4.60;;;29.40;92.10;;;;;;5040625;28;20202;-92
2022/06/30 11:25:05;;;;;;;5.07;4.57;;;29.20;92.30;;;;;;5040675;28;20131;-92
2022/06/30 11:27:32;;;;;;;6.75;5.30;;;29.00;92.40;;;;;;5041976;28;20094;-91
2022/06/30 11:30:04;;;;;;;6.35;5.50;;;28.80;93.70;;;;;;5025645;28;20044;-94
2022/06/30 11:32:30;;;;;;;6.05;5.50;;;28.60;94.00;;;;;;5040258;28;20046;-92
2022/06/30 11:34:57;;;;;;;5.82;5.07;;;28.30;94.60;;;;;;5022817;28;20075;-95
2022/06/30 11:37:24;;;;;;;12.85;7.35;;;28.10;95.70;;;;;;5009687;28;20105;-91
2022/06/30 11:40:09;;;;;;;12.20;8.70;;;27.80;97.80;;;;;;5020030;28;20113;-90
2022/06/30 11:42:58;;;;;;;20.92;10.23;;;27.60;99.90;;;;;;5053439;28;20049;-95
2022/06/30 11:48:53;;;;;;;12.98;8.73;;;26.30;99.90;;;;;;5028405;28;20064;-94
2022/06/30 11:51:20;;;;;;;12.27;9.27;;;25.60;99.90;;;;;;4945161;28;20038;-92
2022/06/30 11:53:46;;;;;;;12.48;10.00;;;25.20;99.90;;;;;;4961624;28;20046;-92
2022/06/30 11:56:11;;;;;;;14.18;11.07;;;25.10;99.90;;;;;;4944382;28;20046;-92
2022/06/30 11:58:38;;;;;;;16.70;11.63;;;25.00;99.90;;;;;;4962741;28;20056;-91
2022/06/30 12:01:14;;;;;;;19.05;13.20;;;24.90;99.90;;;;;;4968125;28;20161;-90
2022/06/30 12:03:43;;;;;;;16.27;11.38;;;24.80;99.90;;;;;;4960266;28;20042;-95
2022/06/30 12:06:10;;;;;;;14.13;10.85;;;24.70;99.90;;;;;;4966787;28;20038;-91
2022/06/30 12:08:39;;;;;;;16.08;10.48;;;24.70;99.90;;;;;;4978868;28;20034;-93
2022/06/30 12:11:08;;;;;;;12.63;10.70;;;24.60;99.90;;;;;;4991070;28;20046;-92
2022/06/30 12:13:39;;;;;;;11.27;9.95;;;24.40;99.90;;;;;;4987752;28;20069;-93
2022/06/30 12:16:10;;;;;;;10.48;9.38;;;24.30;99.90;;;;;;4972037;28;20053;-94
2022/06/30 12:18:37;;;;;;;8.75;7.85;;;23.60;99.90;;;;;;4973516;28;20057;-93
2022/06/30 12:21:03;;;;;;;11.35;7.53;;;24.00;99.90;;;;;;4986513;28;20136;-91
2022/06/30 12:23:30;;;;;;;8.63;7.55;;;23.70;99.90;;;;;;4986570;28;20042;-88
2022/06/30 12:25:56;;;;;;;8.32;7.53;;;23.50;99.90;;;;;;4969391;28;20133;-89
2022/06/30 12:28:24;;;;;;;7.53;6.78;;;23.40;99.90;;;;;;4997458;28;20050;-89
2022/06/30 12:30:51;;;;;;;8.68;7.78;;;23.30;99.90;;;;;;5004480;28;20046;-89
2022/06/30 12:33:17;;;;;;;9.18;8.25;;;23.40;99.90;;;;;;4984193;28;20038;-89
2022/06/30 12:35:43;;;;;;;10.30;9.20;;;23.50;99.90;;;;;;5014484;28;20195;-88
2022/06/30 12:38:11;;;;;;;11.45;9.60;;;23.50;99.90;;;;;;5059501;28;20104;-90
2022/06/30 12:40:43;;;;;;;9.73;8.82;;;23.70;99.90;;;;;;5048241;28;20024;-90
2022/06/30 12:43:09;;;;;;;;;;;23.80;99.90;;;;;;5028205;28;20079;-91
2022/06/30 12:45:55;;;;;;;8.50;7.72;;;23.90;99.90;;;;;;5040513;28;19920;-90
2022/06/30 12:48:45;;;;;;;8.80;7.60;;;24.00;99.90;;;;;;5058985;28;20048;-91
2022/06/30 12:51:36;;;;;;;13.60;8.57;;;24.10;99.90;;;;;;5042823;28;20055;-91
2022/06/30 12:54:09;;;;;;;8.70;7.85;;;24.20;99.90;;;;;;4935845;28;2955621;-92
2022/06/30 12:56:36;;;;;;;12.23;9.57;;;24.30;99.90;;;;;;5028408;28;20510;-90
2022/06/30 12:59:06;;;;;;;11.63;10.43;;;24.30;99.90;;;;;;5041755;28;20048;-91
2022/06/30 13:01:41;;;;;;;10.60;9.60;;;24.40;99.90;;;;;;5027359;28;20104;-90
2022/06/30 13:04:09;;;;;;;11.57;10.40;;;24.60;99.90;;;;;;5042690;28;20051;-91
2022/06/30 13:06:48;;;;;;;9.27;8.40;;;24.70;99.90;;;;;;5056845;28;20033;-91
2022/06/30 13:09:16;;;;;;;14.02;10.35;;;25.10;99.90;;;;;;5040723;28;20080;-96
2022/06/30 13:11:48;;;;;;;11.45;10.32;;;25.30;99.90;;;;;;5044497;28;20037;-91
2022/06/30 13:14:18;;;;;;;13.02;10.90;;;25.40;99.90;;;;;;5042983;28;20125;-91
2022/06/30 13:16:45;;;;;;;12.65;11.35;;;25.30;99.90;;;;;;5043951;28;20131;-90
2022/06/30 13:19:12;;;;;;;16.25;12.95;;;25.30;99.90;;;;;;5023589;28;20093;-91
2022/06/30 13:21:51;;;;;;;16.45;14.05;;;25.30;99.90;;;;;;5025803;28;20548;-91
2022/06/30 13:24:19;;;;;;;13.40;11.70;;;25.50;99.90;;;;;;5017273;28;20052;-92
2022/06/30 13:26:48;;;;;;;16.35;12.40;;;25.80;99.90;;;;;;5036568;28;20036;-94
2022/06/30 13:29:29;;;;;;;15.57;11.60;;;26.00;99.90;;;;;;5049136;28;20113;-93
2022/06/30 13:32:01;;;;;;;13.45;12.07;;;26.10;99.90;;;;;;5050178;28;20036;-95
2022/06/30 13:34:41;;;;;;;16.17;14.20;;;26.10;99.90;;;;;;5016921;28;20044;-92
2022/06/30 13:37:10;;;;;;;17.92;16.05;;;26.20;99.90;;;;;;5038252;28;20048;-95
2022/06/30 13:39:38;;;;;;;19.58;16.83;;;26.20;99.90;;;;;;5033488;28;20087;-94
2022/06/30 13:42:05;;;;;;;19.35;17.23;;;26.30;99.90;;;;;;5035954;28;20052;-95
2022/06/30 13:44:31;;;;;;;21.42;15.85;;;26.40;99.90;;;;;;5022544;28;20096;-96
2022/06/30 13:46:58;;;;;;;21.15;17.13;;;26.40;99.90;;;;;;5022586;28;20067;-96
2022/06/30 13:49:26;;;;;;;17.38;15.43;;;26.30;99.90;;;;;;5026341;28;20146;-96
2022/06/30 13:51:51;;;;;;;18.35;15.65;;;26.30;99.90;;;;;;5024599;28;20033;-93
2022/06/30 13:54:17;;;;;;;19.20;16.30;;;26.40;99.90;;;;;;5025041;28;20064;-96
2022/06/30 13:56:43;;;;;;;17.42;15.63;;;26.40;99.90;;;;;;5039622;28;20104;-94
2022/06/30 13:59:09;;;;;;;18.20;15.32;;;26.50;99.90;;;;;;5026685;28;20039;-95
2022/06/30 14:01:34;;;;;;;18.33;14.38;;;26.40;99.90;;;;;;5058086;28;20104;-95
2022/06/30 14:04:01;;;;;;;15.90;13.05;;;26.40;99.90;;;;;;5024775;28;20506;-95
2022/06/30 14:06:27;;;;;;;14.15;11.85;;;26.30;99.90;;;;;;5021114;28;20036;-91
2022/06/30 14:08:52;;;;;;;17.13;11.60;;;26.30;99.90;;;;;;5013561;28;20037;-89
2022/06/30 14:11:18;;;;;;;14.45;10.70;;;26.30;99.90;;;;;;5037939;28;20468;-95
2022/06/30 14:13:47;;;;;;;15.60;11.18;;;26.40;99.90;;;;;;5007355;28;20044;-95